createdAt,value
2023-02-05T00:00:33.869Z,8.80
2023-02-05T00:04:35.813Z,7.60
2023-02-05T00:08:37.007Z,8.50
2023-02-05T00:12:38.166Z,7.60
2023-02-05T00:16:39.405Z,7.90
2023-02-05T00:20:40.782Z,8.67
2023-02-05T00:24:43.205Z,7.93
2023-02-05T00:28:45.745Z,8.00
2023-02-05T00:32:47.386Z,7.53
2023-02-05T00:36:49.147Z,6.30
2023-02-05T00:40:50.694Z,7.80
2023-02-05T00:44:52.079Z,7.60
2023-02-05T00:48:53.924Z,6.87
2023-02-05T00:52:55.389Z,7.80
2023-02-05T00:56:56.456Z,6.73
2023-02-05T01:00:57.716Z,6.73
2023-02-05T01:04:58.884Z,7.00
2023-02-05T01:09:00.047Z,7.30
2023-02-05T01:13:01.244Z,7.30
2023-02-05T01:17:02.412Z,9.07
2023-02-05T01:21:03.892Z,7.60
2023-02-05T01:25:06.089Z,7.97
2023-02-05T01:29:07.158Z,8.07
2023-02-05T01:33:08.814Z,6.93
2023-02-05T01:37:10.280Z,7.97
2023-02-05T01:41:12.904Z,7.10
2023-02-05T01:45:32.383Z,7.80
2023-02-05T01:49:40.474Z,7.13
2023-02-05T01:53:43.573Z,7.50
2023-02-05T01:57:46.026Z,6.90
2023-02-05T02:01:47.959Z,6.97
2023-02-05T02:05:49.270Z,7.43
2023-02-05T02:09:53.475Z,6.80
2023-02-05T02:13:57.699Z,7.33
2023-02-05T02:18:03.599Z,6.87
2023-02-05T02:22:27.299Z,6.57
2023-02-05T02:26:50.680Z,7.57
2023-02-05T02:31:02.136Z,7.70
2023-02-05T02:35:28.626Z,6.90
2023-02-05T02:39:34.052Z,6.63
2023-02-05T02:43:51.710Z,7.20
2023-02-05T02:47:56.660Z,7.07
2023-02-05T02:52:01.369Z,7.70
2023-02-05T02:56:04.227Z,7.40
2023-02-05T03:00:12.598Z,7.83
2023-02-05T03:04:29.895Z,7.60
2023-02-05T03:08:34.840Z,7.30
2023-02-05T03:12:36.013Z,7.83
2023-02-05T03:16:37.208Z,7.73
2023-02-05T03:20:50.942Z,7.03
2023-02-05T03:24:52.808Z,6.63
2023-02-05T03:28:56.068Z,7.67
2023-02-05T03:33:01.012Z,6.87
2023-02-05T03:37:11.695Z,7.20
2023-02-05T03:41:19.722Z,6.67
2023-02-05T03:45:51.969Z,6.93
2023-02-05T03:49:59.536Z,6.10
2023-02-05T03:54:16.619Z,7.10
2023-02-05T03:58:27.572Z,6.67
2023-02-05T04:02:29.329Z,5.73
2023-02-05T04:06:30.601Z,6.37
2023-02-05T04:10:31.776Z,6.13
2023-02-05T04:14:32.960Z,5.80
2023-02-05T04:18:34.106Z,6.10
2023-02-05T04:22:35.256Z,5.80
2023-02-05T04:26:36.431Z,6.40
2023-02-05T04:30:38.837Z,6.03
2023-02-05T04:34:40.035Z,5.57
2023-02-05T04:38:41.208Z,6.00
2023-02-05T04:42:42.554Z,6.13
2023-02-05T04:46:43.804Z,9.77
2023-02-05T04:50:44.955Z,12.23
2023-02-05T04:54:46.106Z,6.20
2023-02-05T04:58:47.146Z,6.70
2023-02-05T05:02:48.367Z,6.60
2023-02-05T05:06:49.714Z,5.90
2023-02-05T05:10:50.832Z,5.93
2023-02-05T05:14:51.898Z,5.63
2023-02-05T05:18:53.041Z,5.63
2023-02-05T05:22:54.215Z,6.37
2023-02-05T05:26:55.389Z,6.10
2023-02-05T05:30:56.554Z,5.93
2023-02-05T05:34:57.794Z,5.00
2023-02-05T05:39:00.771Z,6.17
2023-02-05T05:43:20.411Z,5.90
2023-02-05T05:51:08.706Z,5.67
2023-02-05T05:55:09.877Z,5.93
2023-02-05T05:59:12.175Z,5.80
2023-02-05T06:03:13.365Z,5.63
2023-02-05T06:07:14.847Z,6.03
2023-02-05T06:11:16.084Z,6.67
2023-02-05T06:15:17.676Z,6.90
2023-02-05T06:19:18.920Z,8.23
2023-02-05T06:23:20.054Z,7.70
2023-02-05T06:27:21.519Z,6.60
2023-02-05T06:31:23.583Z,7.10
2023-02-05T06:35:24.827Z,6.53
2023-02-05T06:39:26.076Z,6.00
2023-02-05T06:43:27.240Z,6.50
2023-02-05T06:47:28.417Z,6.23
2023-02-05T06:51:29.831Z,6.67
2023-02-05T06:55:31.000Z,6.27
2023-02-05T06:59:32.185Z,6.60
2023-02-05T07:03:33.373Z,7.30
2023-02-05T07:07:34.860Z,10.20
2023-02-05T07:11:36.249Z,7.07
2023-02-05T07:15:37.795Z,8.07
2023-02-05T07:19:39.028Z,8.50
2023-02-05T07:23:40.207Z,8.93
2023-02-05T07:27:41.397Z,8.80
2023-02-05T07:31:42.676Z,10.33
2023-02-05T07:35:43.950Z,10.37
2023-02-05T07:39:45.129Z,8.93
2023-02-05T07:43:51.907Z,9.97
2023-02-05T07:47:53.286Z,8.77
2023-02-05T07:51:54.503Z,7.93
2023-02-05T07:55:55.882Z,7.60
2023-02-05T07:59:57.033Z,8.07
2023-02-05T08:03:58.235Z,7.87
2023-02-05T08:07:59.475Z,8.60
2023-02-05T08:12:00.637Z,8.80
2023-02-05T08:16:06.228Z,8.23
2023-02-05T08:20:08.345Z,8.17
2023-02-05T08:24:09.814Z,9.97
2023-02-05T08:28:11.043Z,8.10
2023-02-05T08:32:12.143Z,9.47
2023-02-05T08:36:13.309Z,9.67
2023-02-05T08:40:14.614Z,9.00
2023-02-05T08:44:15.823Z,9.50
2023-02-05T08:48:16.898Z,9.27
2023-02-05T08:52:18.255Z,8.40
2023-02-05T08:56:20.335Z,14.37
2023-02-05T09:00:22.108Z,14.33
2023-02-05T09:04:23.317Z,17.87
2023-02-05T09:08:26.313Z,11.30
2023-02-05T09:12:27.570Z,14.63
2023-02-05T09:16:28.753Z,12.97
2023-02-05T09:20:29.890Z,11.40
2023-02-05T09:24:31.343Z,11.77
2023-02-05T09:28:32.508Z,11.47
2023-02-05T09:32:33.678Z,13.90
2023-02-05T09:36:34.821Z,12.20
2023-02-05T09:40:42.688Z,11.87
2023-02-05T09:45:13.197Z,11.70
2023-02-05T09:49:30.755Z,11.10
2023-02-05T09:53:35.711Z,15.30
2023-02-05T09:57:40.066Z,13.77
2023-02-05T10:01:45.072Z,13.50
2023-02-05T10:06:23.615Z,14.03
2023-02-05T10:10:28.285Z,16.90
2023-02-05T10:14:53.303Z,18.30
2023-02-05T10:19:16.701Z,16.50
2023-02-05T10:23:38.523Z,16.57
2023-02-05T10:27:46.554Z,17.20
2023-02-05T10:32:12.958Z,17.27
2023-02-05T10:36:15.238Z,16.87
2023-02-05T10:40:22.904Z,17.37
2023-02-05T10:44:34.104Z,14.77
2023-02-05T10:48:48.334Z,18.10
2023-02-05T10:52:49.581Z,16.17
2023-02-05T10:56:50.949Z,15.97
2023-02-05T11:00:52.200Z,15.80
2023-02-05T11:05:02.381Z,16.10
2023-02-05T11:09:16.391Z,15.43
2023-02-05T11:13:21.912Z,17.40
2023-02-05T11:17:26.238Z,16.47
2023-02-05T11:21:55.432Z,24.60
2023-02-05T11:25:58.986Z,22.73
2023-02-05T11:30:37.664Z,19.33
2023-02-05T11:34:23.620Z,19.77
2023-02-05T11:38:31.191Z,18.67
2023-02-05T11:42:32.458Z,16.93
2023-02-05T11:46:37.678Z,16.13
2023-02-05T11:50:42.676Z,15.87
2023-02-05T11:54:47.296Z,14.30
2023-02-05T11:59:07.301Z,16.53
2023-02-05T12:03:17.362Z,19.67
2023-02-05T12:07:19.420Z,14.57
2023-02-05T12:12:00.312Z,14.87
2023-02-05T12:16:05.726Z,13.93
2023-02-05T12:20:35.007Z,14.03
2023-02-05T12:25:05.465Z,13.50
2023-02-05T12:29:32.716Z,13.80
2023-02-05T12:33:49.270Z,12.83
2023-02-05T12:38:32.435Z,13.40
2023-02-05T12:42:49.697Z,14.30
2023-02-05T12:46:57.900Z,13.60
2023-02-05T12:51:14.779Z,12.20
2023-02-05T12:55:25.906Z,17.80
2023-02-05T12:59:36.883Z,14.77
2023-02-05T13:03:44.902Z,12.97
2023-02-05T13:07:56.099Z,10.90
2023-02-05T13:12:01.037Z,11.17
2023-02-05T13:16:05.676Z,11.60
2023-02-05T13:20:09.931Z,11.53
2023-02-05T13:24:50.698Z,11.93
2023-02-05T13:28:57.928Z,10.40
2023-02-05T13:33:02.799Z,9.43
2023-02-05T13:37:10.754Z,18.80
2023-02-05T13:41:21.972Z,15.13
2023-02-05T13:45:39.155Z,8.30
2023-02-05T13:49:59.354Z,10.93
2023-02-05T13:54:21.900Z,7.87
2023-02-05T13:58:29.905Z,8.20
2023-02-05T14:02:34.663Z,10.30
2023-02-05T14:06:38.510Z,9.10
2023-02-05T14:10:44.084Z,7.93
2023-02-05T14:14:49.034Z,8.47
2023-02-05T14:19:03.177Z,8.63
2023-02-05T14:23:14.140Z,9.00
2023-02-05T14:27:34.571Z,11.60
2023-02-05T14:31:47.967Z,11.77
2023-02-05T14:35:51.646Z,10.93
2023-02-05T14:39:52.805Z,11.03
2023-02-05T14:44:06.258Z,9.67
2023-02-05T14:48:11.211Z,10.53
2023-02-05T14:52:28.963Z,11.27
2023-02-05T14:56:40.097Z,11.03
2023-02-05T15:00:41.927Z,12.50
2023-02-05T15:04:48.609Z,14.33
2023-02-05T15:08:53.524Z,12.30
2023-02-05T15:13:04.089Z,13.63
2023-02-05T15:17:10.114Z,14.50
2023-02-05T15:21:15.846Z,13.70
2023-02-05T15:25:42.384Z,13.03
2023-02-05T15:29:52.294Z,12.07
2023-02-05T15:34:06.930Z,12.70
2023-02-05T15:38:24.230Z,12.17
2023-02-05T15:42:35.349Z,13.10
2023-02-05T15:46:36.562Z,12.33
2023-02-05T15:50:51.081Z,13.20
2023-02-05T15:54:55.205Z,14.90
2023-02-05T15:59:04.036Z,14.10
2023-02-05T16:03:06.056Z,13.60
2023-02-05T16:07:21.263Z,14.20
2023-02-05T16:11:33.422Z,15.20
2023-02-05T16:15:38.389Z,14.47
2023-02-05T16:19:47.490Z,14.07
2023-02-05T16:23:58.442Z,15.37
2023-02-05T16:28:05.749Z,15.50
2023-02-05T16:32:16.402Z,15.90
2023-02-05T16:36:23.941Z,16.67
2023-02-05T16:40:38.199Z,15.60
2023-02-05T16:44:39.969Z,15.33
2023-02-05T16:48:50.278Z,15.30
2023-02-05T16:53:00.515Z,14.00
2023-02-05T16:57:17.287Z,14.40
2023-02-05T17:01:24.504Z,14.50
2023-02-05T17:05:33.360Z,15.70
2023-02-05T17:09:37.231Z,14.40
2023-02-05T17:13:41.417Z,16.63
2023-02-05T17:17:51.134Z,18.83
2023-02-05T17:22:16.884Z,19.87
2023-02-05T17:26:18.842Z,18.80
2023-02-05T17:30:20.777Z,20.63
2023-02-05T17:34:21.874Z,18.33
2023-02-05T17:38:23.150Z,23.20
2023-02-05T17:42:25.906Z,15.97
2023-02-05T17:46:27.124Z,16.60
2023-02-05T17:50:28.569Z,13.27
2023-02-05T17:54:30.337Z,15.33
2023-02-05T17:58:31.766Z,13.97
2023-02-05T18:02:32.964Z,13.90
2023-02-05T18:06:36.087Z,15.63
2023-02-05T18:10:37.623Z,17.67
2023-02-05T18:14:38.912Z,17.47
2023-02-05T18:18:40.089Z,16.10
2023-02-05T18:22:41.264Z,18.17
2023-02-05T18:26:43.252Z,17.10
2023-02-05T18:30:44.471Z,17.70
2023-02-05T18:34:45.577Z,15.30
2023-02-05T18:38:46.752Z,17.50
2023-02-05T18:42:49.894Z,16.77
2023-02-05T18:46:51.324Z,16.93
2023-02-05T18:50:52.504Z,14.80
2023-02-05T18:54:53.660Z,16.30
2023-02-05T18:58:59.474Z,20.13
2023-02-05T19:03:06.457Z,17.43
2023-02-05T19:07:10.650Z,15.70
2023-02-05T19:11:15.620Z,19.10
2023-02-05T19:15:16.808Z,17.50
2023-02-05T19:19:21.314Z,15.47
2023-02-05T19:23:22.424Z,14.43
2023-02-05T19:27:23.587Z,13.10
2023-02-05T19:31:27.320Z,12.57
2023-02-05T19:35:28.446Z,13.07
2023-02-05T19:39:29.630Z,12.77
2023-02-05T19:43:30.712Z,13.13
2023-02-05T19:47:31.872Z,13.30
2023-02-05T19:51:33.338Z,13.93
2023-02-05T19:55:35.754Z,13.70
2023-02-05T19:59:36.838Z,12.97
2023-02-05T20:03:37.985Z,11.40
2023-02-05T20:07:39.337Z,11.97
2023-02-05T20:11:43.374Z,10.90
2023-02-05T20:15:44.563Z,12.20
2023-02-05T20:19:45.893Z,12.50
2023-02-05T20:23:48.378Z,11.30
2023-02-05T20:27:49.549Z,10.70
2023-02-05T20:31:52.506Z,12.50
2023-02-05T20:36:00.753Z,11.93
2023-02-05T20:40:03.439Z,11.23
2023-02-05T20:44:06.926Z,13.57
2023-02-05T20:48:08.238Z,11.93
2023-02-05T20:52:10.987Z,13.17
2023-02-05T20:56:16.051Z,19.07
2023-02-05T21:00:26.599Z,21.03
2023-02-05T21:04:28.899Z,17.07
2023-02-05T21:08:33.854Z,16.37
2023-02-05T21:12:35.725Z,16.17
2023-02-05T21:16:37.963Z,16.13
2023-02-05T21:20:39.417Z,14.30
2023-02-05T21:24:41.012Z,15.30
2023-02-05T21:28:42.450Z,13.27
2023-02-05T21:32:44.249Z,14.43
2023-02-05T21:36:47.633Z,13.53
2023-02-05T21:40:50.811Z,13.33
2023-02-05T21:44:53.618Z,13.30
2023-02-05T21:48:57.206Z,15.50
2023-02-05T21:52:58.402Z,14.47
2023-02-05T21:56:59.585Z,16.37
2023-02-05T22:01:12.429Z,15.40
2023-02-05T22:05:13.652Z,13.50
2023-02-05T22:09:16.141Z,14.13
2023-02-05T22:13:17.311Z,13.50
2023-02-05T22:17:18.469Z,13.10
2023-02-05T22:21:26.093Z,14.40
2023-02-05T22:25:27.296Z,14.07
2023-02-05T22:29:28.665Z,14.40
2023-02-05T22:33:30.746Z,15.73
2023-02-05T22:37:32.705Z,15.47
2023-02-05T22:41:37.267Z,16.57
2023-02-05T22:45:38.553Z,15.03
2023-02-05T22:49:39.707Z,15.00
2023-02-05T22:53:41.422Z,15.20
2023-02-05T22:57:42.573Z,16.60
2023-02-05T23:01:44.030Z,15.17
2023-02-05T23:05:45.296Z,16.77
2023-02-05T23:09:48.555Z,14.43
2023-02-05T23:13:49.926Z,14.17
2023-02-05T23:17:51.100Z,13.83
2023-02-05T23:21:52.290Z,15.50
2023-02-05T23:25:54.349Z,14.13
2023-02-05T23:29:55.502Z,14.07
2023-02-05T23:33:56.657Z,14.47
2023-02-05T23:37:57.843Z,13.60
2023-02-05T23:41:59.046Z,13.43
2023-02-05T23:50:09.595Z,14.53
2023-02-05T23:54:11.704Z,13.70
2023-02-05T23:58:13.636Z,11.97
